Oark, AR (72852)

1:52 AM CST on February 11, 2016 (GMT -0600)
Pettigrew | | Change Station
CLOSE
Current Station
Personal Weather Station
Location: Pettigrew, AR
Elevation: 1873 ft
Nearby Weather Stations

Elev 1873 ft 35.82 °N, 93.64 °W | Updated 4 minutes ago

Clear
Clear
27.5 °F
Feels Like 28 °F
N
2.2
Wind Variable Wind from East

Today
High -- | Low -- °F
--% Chance of Precip.
Yesterday
High -- | Low -- °F
Precip. -- in
Pressure 29.95 in
Visibility 10.0 miles
Clouds Clear
Windchill 28 °F
Dew Point 25 °F
Humidity 89%
Rainfall 0.00 in
Snow Depth Not available.
7:05 AM 5:51 PM
Waxing Crescent, 10% visible
METAR KFYV 110653Z AUTO 00000KT 10SM CLR 03/M02 A2994 RMK AO2 SLP142 T00281017
Pressure 29.95 in
Visibility 10.0 miles
Clouds Clear
Windchill 28 °F
Dew Point 25 °F
Humidity 89%
Rainfall 0.00 in
Snow Depth Not available.
7:05 AM 5:51 PM
Waxing Crescent, 10% visible
METAR KFYV 110653Z AUTO 00000KT 10SM CLR 03/M02 A2994 RMK AO2 SLP142 T00281017

10-Day Weather Forecast

Almanac

Astronomy

Feb. 11, 2016 Rise Set
Actual Time
Civil Twilight
Nautical Twilight
Astronomical Twilight
Moon
Length of Visible Light
Length of Day
Tomorrow will be .
, % of the Moon is Illuminated

Today's Extremes

State Highs State Lows

Community

WunderPhotos

Upload Photos

1,892,030 photos uploaded!

WunderBlog® & News

Nearby

Air Quality

  Air Quality AQ Index Pollutant
Not available.

Snow Depth

Station Depth Elevation

Earthquake Activity

City Distance Mag. Time & Date
Minimum magnitude displayed is 2.5.

Coastal Water Temperatures

Place Temperature

Stations

Nearby Weather Stations

Station Location Temp. Windchill Dew Point Humidity Wind Precip. Elev Updated Type
                   

Watches & Warnings

There are currently no watches in effect.